<?xml version="1.0" encoding="UTF-8" standalone="no" ?>
<gpx xmlns="http://www.topografix.com/GPX/1/1" xmlns:xsi="http://www.w3.org/2001/XMLSchema-instance" xsi:schemaLocation="http://www.topografix.com/GPX/1/1 http://www.topografix.com/GPX/1/1/gpx.xsd" version="1.1" creator="VisuGPX - https://www.visugpx.com">
  <metadata>
    <name>De Meillerie à Salvigny</name>
    <desc><![CDATA[Randonnée en Haute-Savoie]]></desc>
  </metadata>
  <trk>
    <name><![CDATA[ACTIVE LOG: 28 JUL 2015 14:19]]></name>
    <trkseg>
      <trkpt lat="46.17384" lon="6.80549">
        <ele>2104.94</ele>
        <time>2015-07-28T12:19:21Z</time>
      </trkpt>
      <trkpt lat="46.17415" lon="6.80544">
        <ele>2104.94</ele>
        <time>2015-07-28T12:20:26Z</time>
      </trkpt>
      <trkpt lat="46.17376" lon="6.80498">
        <ele>2100.14</ele>
        <time>2015-07-28T12:21:31Z</time>
      </trkpt>
      <trkpt lat="46.17321" lon="6.80451">
        <ele>2105.91</ele>
        <time>2015-07-28T12:22:36Z</time>
      </trkpt>
      <trkpt lat="46.17276" lon="6.80369">
        <ele>2107.83</ele>
        <time>2015-07-28T12:23:41Z</time>
      </trkpt>
      <trkpt lat="46.17235" lon="6.80276">
        <ele>2113.12</ele>
        <time>2015-07-28T12:24:46Z</time>
      </trkpt>
      <trkpt lat="46.17172" lon="6.80219">
        <ele>2122.25</ele>
        <time>2015-07-28T12:25:51Z</time>
      </trkpt>
      <trkpt lat="46.17161" lon="6.80201">
        <ele>2122.73</ele>
        <time>2015-07-28T12:26:56Z</time>
      </trkpt>
      <trkpt lat="46.17094" lon="6.80173">
        <ele>2117.44</ele>
        <time>2015-07-28T12:28:01Z</time>
      </trkpt>
      <trkpt lat="46.17027" lon="6.80169">
        <ele>2114.56</ele>
        <time>2015-07-28T12:29:06Z</time>
      </trkpt>
      <trkpt lat="46.17" lon="6.80154">
        <ele>2111.67</ele>
        <time>2015-07-28T12:30:11Z</time>
      </trkpt>
      <trkpt lat="46.16964" lon="6.80101">
        <ele>2105.91</ele>
        <time>2015-07-28T12:31:16Z</time>
      </trkpt>
      <trkpt lat="46.16944" lon="6.80068">
        <ele>2096.29</ele>
        <time>2015-07-28T12:32:21Z</time>
      </trkpt>
      <trkpt lat="46.16908" lon="6.80035">
        <ele>2084.28</ele>
        <time>2015-07-28T12:33:26Z</time>
      </trkpt>
      <trkpt lat="46.16847" lon="6.79969">
        <ele>2080.43</ele>
        <time>2015-07-28T12:34:31Z</time>
      </trkpt>
      <trkpt lat="46.16829" lon="6.79869">
        <ele>2076.1</ele>
        <time>2015-07-28T12:35:36Z</time>
      </trkpt>
      <trkpt lat="46.16811" lon="6.79777">
        <ele>2077.55</ele>
        <time>2015-07-28T12:36:41Z</time>
      </trkpt>
      <trkpt lat="46.16789" lon="6.797">
        <ele>2081.39</ele>
        <time>2015-07-28T12:37:46Z</time>
      </trkpt>
      <trkpt lat="46.16762" lon="6.79621">
        <ele>2092.93</ele>
        <time>2015-07-28T12:38:51Z</time>
      </trkpt>
      <trkpt lat="46.16743" lon="6.79553">
        <ele>2104.46</ele>
        <time>2015-07-28T12:39:56Z</time>
      </trkpt>
      <trkpt lat="46.16727" lon="6.79477">
        <ele>2113.12</ele>
        <time>2015-07-28T12:41:01Z</time>
      </trkpt>
      <trkpt lat="46.16699" lon="6.79429">
        <ele>2124.17</ele>
        <time>2015-07-28T12:42:06Z</time>
      </trkpt>
      <trkpt lat="46.16681" lon="6.79368">
        <ele>2133.78</ele>
        <time>2015-07-28T12:43:11Z</time>
      </trkpt>
      <trkpt lat="46.16685" lon="6.79321">
        <ele>2140.03</ele>
        <time>2015-07-28T12:44:16Z</time>
      </trkpt>
      <trkpt lat="46.16645" lon="6.79279">
        <ele>2151.09</ele>
        <time>2015-07-28T12:45:21Z</time>
      </trkpt>
      <trkpt lat="46.16629" lon="6.79217">
        <ele>2157.34</ele>
        <time>2015-07-28T12:46:26Z</time>
      </trkpt>
      <trkpt lat="46.16603" lon="6.79231">
        <ele>2165.51</ele>
        <time>2015-07-28T12:47:31Z</time>
      </trkpt>
      <trkpt lat="46.16599" lon="6.79318">
        <ele>2174.16</ele>
        <time>2015-07-28T12:48:36Z</time>
      </trkpt>
      <trkpt lat="46.16543" lon="6.79304">
        <ele>2184.25</ele>
        <time>2015-07-28T12:49:41Z</time>
      </trkpt>
      <trkpt lat="46.16512" lon="6.79264">
        <ele>2195.79</ele>
        <time>2015-07-28T12:50:46Z</time>
      </trkpt>
      <trkpt lat="46.16485" lon="6.79184">
        <ele>2197.71</ele>
        <time>2015-07-28T12:51:51Z</time>
      </trkpt>
      <trkpt lat="46.16458" lon="6.79119">
        <ele>2205.88</ele>
        <time>2015-07-28T12:52:56Z</time>
      </trkpt>
      <trkpt lat="46.16451" lon="6.79098">
        <ele>2206.84</ele>
        <time>2015-07-28T12:54:01Z</time>
      </trkpt>
      <trkpt lat="46.1645" lon="6.79095">
        <ele>2206.36</ele>
        <time>2015-07-28T12:54:32Z</time>
      </trkpt>
    </trkseg>
  </trk>
</gpx>